Terminal Aerodrome Forecast
Issued by NWS Pocatello, ID

Home | Current Version | Previous Version | Text Only | Print | Product List | Glossary On
Versions: 1 2 3 4 5 6 7 8 9 10 11 12 13 14 15 16 17 18 19 20 21 22 23 24 25 26 27 28 29 30 31 32 33 34 35 36
143
FTUS45 KPIH 071727
TAFPIH
TAF
KPIH 071727Z 0718/0818 VRB06KT 1SM -SN BR OVC020
     FM072000 VRB06KT 3SM -SN BR BKN020 OVC030
     FM072300 VRB06KT P6SM SCT020 BKN040
     FM081300 15007KT P6SM SCT040=

USA.gov is the U.S. government's official web portal to all federal, state and local government web resources and services.